SKSP/ADZ METAR and TAF weather

Enter ICAO airport designator
Station Type Date Time Source
SKSP METAR 2019/02/16 07:00 UTC NOAA

SKSP 160700Z 05007KT 9999 FEW016 26/23 A2991


Station Type Date Time Source
SKSP Decoded METAR 2019/02/16 07:00 UTC NOAA

San Andres Isla / Sesquicentenario, Colombia (SKSP) 12-35N 081-43W 6M
Feb 16, 2019 - 02:00 AM EST / 2019.02.16 0700 UTC
Wind: from the NE (050 degrees) at 8 MPH (7 KT):0
Visibility: greater than 7 mile(s):0
Sky conditions: mostly clear
Temperature: 78 F (26 C)
Dew Point: 73 F (23 C)
Relative Humidity: 83%
Pressure (altimeter): 29.91 in. Hg (1012 hPa)
ob: SKSP 160700Z 05007KT 9999 FEW016 26/23 A2991
cycle: 7

Station Type Date Time Source
SKSP TAF 2019/02/16 06:40 UTC NOAA

TAF SKSP 160500Z 1606/1706 06006KT 9999 FEW018 TX30/1619Z TN26/1611Z


Example: see airport list